createdAt,value
2019-01-04T00:01:58.105Z,17.50
2019-01-04T00:04:26.947Z,18.57
2019-01-04T00:06:55.424Z,14.23
2019-01-04T00:09:24.111Z,14.33
2019-01-04T00:11:53.321Z,13.60
2019-01-04T00:14:21.893Z,12.63
2019-01-04T00:16:50.628Z,15.37
2019-01-04T00:19:19.842Z,16.33
2019-01-04T00:21:48.562Z,14.27
2019-01-04T00:24:17.268Z,17.70
2019-01-04T00:26:46.109Z,18.07
2019-01-04T00:29:14.863Z,14.30
2019-01-04T00:31:43.328Z,60.77
2019-01-04T00:34:12.007Z,17.93
2019-01-04T00:36:40.821Z,12.27
2019-01-04T00:39:09.265Z,16.47
2019-01-04T00:41:38.115Z,15.40
2019-01-04T00:44:06.776Z,17.13
2019-01-04T00:46:35.616Z,12.70
2019-01-04T00:49:04.156Z,17.53
2019-01-04T00:51:32.900Z,15.03
2019-01-04T00:54:01.740Z,23.30
2019-01-04T00:56:36.298Z,18.23
2019-01-04T00:59:19.581Z,18.57
2019-01-04T01:02:14.157Z,17.97
2019-01-04T01:05:02.553Z,27.73
2019-01-04T01:07:45.616Z,17.83
2019-01-04T01:10:36.233Z,25.43
2019-01-04T01:13:31.935Z,18.07
2019-01-04T01:16:15.356Z,17.63
2019-01-04T01:18:49.990Z,13.60
2019-01-04T01:21:30.469Z,26.93
2019-01-04T01:24:10.867Z,13.77
2019-01-04T01:27:14.545Z,14.70
2019-01-04T01:30:11.711Z,17.00
2019-01-04T01:32:49.291Z,18.43
2019-01-04T01:35:32.751Z,17.30
2019-01-04T01:38:10.157Z,21.93
2019-01-04T01:41:14.977Z,16.60
2019-01-04T01:44:00.981Z,26.90
2019-01-04T01:46:41.731Z,26.10
2019-01-04T01:49:42.237Z,36.57
2019-01-04T01:52:16.504Z,29.83
2019-01-04T01:54:45.301Z,29.20
2019-01-04T01:57:13.983Z,26.87
2019-01-04T01:59:42.693Z,27.87
2019-01-04T02:02:13.373Z,28.50
2019-01-04T02:04:42.016Z,23.97
2019-01-04T02:07:10.735Z,29.03
2019-01-04T02:09:39.439Z,23.87
2019-01-04T02:12:08.141Z,30.30
2019-01-04T02:14:36.552Z,31.90
2019-01-04T02:17:05.359Z,39.47
2019-01-04T02:19:33.816Z,37.67
2019-01-04T02:22:02.223Z,45.40
2019-01-04T02:24:30.952Z,43.97
2019-01-04T02:26:59.673Z,35.10
2019-01-04T02:29:28.395Z,40.10
2019-01-04T02:31:57.245Z,48.17
2019-01-04T02:34:25.970Z,49.13
2019-01-04T02:36:54.650Z,54.97
2019-01-04T02:39:23.087Z,60.83
2019-01-04T02:41:51.826Z,63.77
2019-01-04T02:44:21.075Z,64.57
2019-01-04T02:46:49.510Z,68.80
2019-01-04T02:49:18.252Z,64.27
2019-01-04T02:51:46.692Z,53.03
2019-01-04T02:54:15.412Z,55.50
2019-01-04T02:56:44.132Z,62.03
2019-01-04T02:59:12.853Z,63.90
2019-01-04T03:01:41.583Z,81.30
2019-01-04T03:04:10.378Z,77.20
2019-01-04T03:06:38.865Z,57.93
2019-01-04T03:09:07.950Z,70.33
2019-01-04T03:11:37.998Z,76.07
2019-01-04T03:14:06.739Z,70.53
2019-01-04T03:16:35.447Z,76.10
2019-01-04T03:19:04.117Z,72.17
2019-01-04T03:21:32.545Z,68.97
2019-01-04T03:24:00.961Z,79.77
2019-01-04T03:26:29.466Z,74.20
2019-01-04T03:28:58.158Z,69.73
2019-01-04T03:31:26.581Z,68.23
2019-01-04T03:33:55.071Z,68.93
2019-01-04T03:36:23.766Z,69.87
2019-01-04T03:38:52.168Z,65.10
2019-01-04T03:41:20.873Z,74.97
2019-01-04T03:43:49.304Z,81.97
2019-01-04T03:46:17.760Z,67.07
2019-01-04T03:48:46.436Z,60.90
2019-01-04T03:51:14.839Z,69.90
2019-01-04T03:53:43.540Z,77.13
2019-01-04T03:56:12.327Z,71.37
2019-01-04T03:58:40.991Z,72.50
2019-01-04T04:01:09.759Z,68.50
2019-01-04T04:03:38.199Z,63.60
2019-01-04T04:06:06.969Z,58.53
2019-01-04T04:08:35.651Z,53.10
2019-01-04T04:11:04.352Z,55.07
2019-01-04T04:13:32.786Z,48.13
2019-01-04T04:16:01.464Z,44.80
2019-01-04T04:18:29.882Z,48.50
2019-01-04T04:20:58.592Z,46.43
2019-01-04T04:23:27.369Z,46.57
2019-01-04T04:25:57.208Z,46.80
2019-01-04T04:28:25.700Z,50.60
2019-01-04T04:30:54.395Z,55.57
2019-01-04T04:33:22.822Z,50.20
2019-01-04T04:35:51.517Z,54.00
2019-01-04T04:38:20.211Z,49.20
2019-01-04T04:40:48.702Z,44.17
2019-01-04T04:43:17.126Z,48.63
2019-01-04T04:45:45.547Z,44.03
2019-01-04T04:48:14.232Z,37.43
2019-01-04T04:50:42.664Z,40.57
2019-01-04T04:53:11.078Z,34.27
2019-01-04T04:55:39.791Z,32.40
2019-01-04T04:58:08.626Z,31.03
2019-01-04T05:00:37.380Z,31.70
2019-01-04T05:03:05.775Z,31.90
2019-01-04T05:05:34.457Z,39.53
2019-01-04T05:08:03.182Z,36.70
2019-01-04T05:10:31.821Z,40.03
2019-01-04T05:13:00.525Z,47.93
2019-01-04T05:15:29.216Z,31.70
2019-01-04T05:17:57.989Z,29.57
2019-01-04T05:20:26.674Z,26.30
2019-01-04T05:22:55.099Z,24.57
2019-01-04T05:25:23.841Z,25.53
2019-01-04T05:27:52.568Z,28.77
2019-01-04T05:30:21.234Z,22.73
2019-01-04T05:32:49.894Z,24.63
2019-01-04T05:35:19.679Z,21.70
2019-01-04T05:37:48.172Z,21.80
2019-01-04T05:40:16.846Z,24.37
2019-01-04T05:42:45.564Z,23.83
2019-01-04T05:45:13.986Z,20.27
2019-01-04T05:47:42.418Z,21.47
2019-01-04T05:50:11.131Z,22.50
2019-01-04T05:52:39.858Z,22.67
2019-01-04T05:55:08.626Z,26.17
2019-01-04T05:57:37.345Z,18.27
2019-01-04T06:00:09.242Z,20.00
2019-01-04T06:02:37.923Z,21.70
2019-01-04T06:05:06.604Z,20.20
2019-01-04T06:07:35.384Z,19.40
2019-01-04T06:10:05.186Z,24.60
2019-01-04T06:12:33.897Z,23.20
2019-01-04T06:15:02.669Z,19.40
2019-01-04T06:17:31.383Z,18.10
2019-01-04T06:20:00.140Z,31.33
2019-01-04T06:22:28.586Z,21.10
2019-01-04T06:24:57.257Z,24.20
2019-01-04T06:27:26.020Z,17.20
2019-01-04T06:29:54.690Z,18.90
2019-01-04T06:32:23.112Z,18.87
2019-01-04T06:34:51.603Z,17.50
2019-01-04T06:37:20.287Z,24.53
2019-01-04T06:39:49.134Z,27.77
2019-01-04T06:42:17.814Z,18.87
2019-01-04T06:44:46.500Z,23.43
2019-01-04T06:47:16.809Z,19.90
2019-01-04T06:49:45.658Z,19.23
2019-01-04T06:52:14.349Z,21.90
2019-01-04T06:55:17.852Z,20.77
2019-01-04T06:57:46.576Z,24.80
2019-01-04T07:00:15.318Z,19.00
2019-01-04T07:02:43.889Z,21.37
2019-01-04T07:05:12.322Z,17.53
2019-01-04T07:07:41.031Z,19.70
2019-01-04T07:10:10.274Z,21.73
2019-01-04T07:12:38.678Z,17.67
2019-01-04T07:15:07.846Z,20.70
2019-01-04T07:17:36.522Z,26.77
2019-01-04T07:20:06.163Z,18.17
2019-01-04T07:22:34.868Z,17.53
2019-01-04T07:25:03.542Z,25.53
2019-01-04T07:27:31.975Z,20.57
2019-01-04T07:30:00.437Z,27.50
2019-01-04T07:32:28.827Z,21.83
2019-01-04T07:34:57.317Z,36.20
2019-01-04T07:37:26.131Z,21.97
2019-01-04T07:39:54.545Z,21.53
2019-01-04T07:42:22.973Z,14.97
2019-01-04T07:44:51.669Z,19.80
2019-01-04T07:47:20.355Z,19.13
2019-01-04T07:49:49.078Z,20.03
2019-01-04T07:52:18.239Z,15.57
2019-01-04T07:54:47.012Z,15.07
2019-01-04T07:57:15.779Z,19.23
2019-01-04T07:59:44.458Z,15.17
2019-01-04T08:02:37.221Z,15.03
2019-01-04T08:05:09.280Z,22.50
2019-01-04T08:07:37.991Z,17.13
2019-01-04T08:10:07.829Z,16.60
2019-01-04T08:12:39.447Z,14.47
2019-01-04T08:15:10.017Z,20.33
2019-01-04T08:17:38.694Z,14.43
2019-01-04T08:20:09.953Z,13.00
2019-01-04T08:22:38.741Z,14.93
2019-01-04T08:25:08.596Z,14.57
2019-01-04T08:27:37.092Z,18.40
2019-01-04T08:30:09.207Z,11.47
2019-01-04T08:32:37.884Z,15.17
2019-01-04T08:35:07.865Z,13.63
2019-01-04T08:37:36.553Z,15.97
2019-01-04T08:40:07.824Z,14.67
2019-01-04T08:42:37.416Z,15.60
2019-01-04T08:45:07.762Z,15.43
2019-01-04T08:47:36.467Z,16.80
2019-01-04T08:50:07.795Z,14.87
2019-01-04T08:52:36.509Z,17.77
2019-01-04T08:55:07.752Z,21.40
2019-01-04T08:57:36.433Z,22.33
2019-01-04T09:00:07.953Z,18.93
2019-01-04T09:02:36.378Z,20.60
2019-01-04T09:05:05.835Z,22.97
2019-01-04T09:07:34.591Z,23.97
2019-01-04T09:10:03.673Z,32.10
2019-01-04T09:12:32.409Z,21.70
2019-01-04T09:15:01.108Z,22.80
2019-01-04T09:17:29.814Z,26.93
2019-01-04T09:19:58.588Z,25.80
2019-01-04T09:22:27.410Z,26.10
2019-01-04T09:24:55.837Z,22.00
2019-01-04T09:27:24.670Z,21.17
2019-01-04T09:29:53.087Z,30.90
2019-01-04T09:32:21.786Z,21.77
2019-01-04T09:34:50.275Z,22.33
2019-01-04T09:37:19.141Z,22.20
2019-01-04T09:39:47.852Z,23.60
2019-01-04T09:42:16.621Z,21.43
2019-01-04T09:44:45.298Z,22.83
2019-01-04T09:47:13.980Z,22.87
2019-01-04T09:49:42.571Z,28.83
2019-01-04T09:52:11.400Z,22.53
2019-01-04T09:54:40.141Z,25.03
2019-01-04T09:57:08.953Z,28.03
2019-01-04T09:59:37.461Z,33.37
2019-01-04T10:02:06.365Z,28.50
2019-01-04T10:04:35.040Z,25.30
2019-01-04T10:07:03.718Z,25.20
2019-01-04T10:09:32.160Z,29.90
2019-01-04T10:12:02.541Z,28.07
2019-01-04T10:14:31.338Z,31.10
2019-01-04T10:16:59.727Z,32.07
2019-01-04T10:19:28.217Z,29.40
2019-01-04T10:21:56.921Z,30.57
2019-01-04T10:24:25.745Z,34.33
2019-01-04T10:26:54.166Z,30.83
2019-01-04T10:29:22.939Z,33.00
2019-01-04T10:31:51.744Z,36.53
2019-01-04T10:34:20.511Z,28.33
2019-01-04T10:36:49.198Z,29.40
2019-01-04T10:39:17.900Z,28.67
2019-01-04T10:41:46.592Z,30.07
2019-01-04T10:44:15.055Z,32.90
2019-01-04T10:46:43.759Z,27.63
2019-01-04T10:49:12.654Z,85.27
2019-01-04T10:51:42.576Z,31.93
2019-01-04T10:54:11.270Z,28.70
2019-01-04T10:56:40.500Z,28.03
2019-01-04T10:59:09.019Z,32.47
2019-01-04T11:01:37.774Z,26.33
2019-01-04T11:04:06.198Z,27.43
2019-01-04T11:06:34.964Z,34.23
2019-01-04T11:09:04.958Z,30.10
2019-01-04T11:11:33.661Z,29.23
2019-01-04T11:14:02.057Z,33.53
2019-01-04T11:16:30.766Z,27.10
2019-01-04T11:18:59.454Z,26.40
2019-01-04T11:21:28.143Z,26.60
2019-01-04T11:24:05.625Z,25.13
2019-01-04T11:26:40.753Z,29.80
2019-01-04T11:29:18.074Z,24.20
2019-01-04T11:31:58.770Z,22.93
2019-01-04T11:34:33.637Z,24.20
2019-01-04T11:37:23.522Z,22.83
2019-01-04T11:40:17.248Z,20.27
2019-01-04T11:42:51.738Z,29.37
2019-01-04T11:45:23.524Z,22.07
2019-01-04T11:48:11.297Z,21.83
2019-01-04T11:50:42.786Z,16.33
2019-01-04T11:53:14.568Z,17.63
2019-01-04T11:55:42.974Z,21.20
2019-01-04T11:58:11.690Z,22.03
2019-01-04T12:00:40.247Z,19.90
2019-01-04T12:03:08.980Z,21.30
2019-01-04T12:05:37.680Z,34.37
2019-01-04T12:08:06.350Z,16.47
2019-01-04T12:10:35.060Z,19.03
2019-01-04T12:13:03.823Z,21.10
2019-01-04T12:15:32.526Z,25.40
2019-01-04T12:18:01.298Z,24.37
2019-01-04T12:20:29.710Z,21.77
2019-01-04T12:22:58.488Z,21.60
2019-01-04T12:25:26.934Z,22.97
2019-01-04T12:27:55.600Z,24.80
2019-01-04T12:30:24.281Z,27.20
2019-01-04T12:32:52.994Z,18.60
2019-01-04T12:35:21.687Z,24.80
2019-01-04T12:37:50.346Z,24.83
2019-01-04T12:40:19.068Z,26.20
2019-01-04T12:42:47.743Z,23.20
2019-01-04T12:45:16.448Z,28.37
2019-01-04T12:47:44.905Z,27.13
2019-01-04T12:50:13.368Z,26.93
2019-01-04T12:52:42.095Z,27.77
2019-01-04T12:55:10.782Z,25.93
2019-01-04T12:57:39.507Z,29.03
2019-01-04T13:00:11.201Z,30.97
2019-01-04T13:02:39.914Z,26.13
2019-01-04T13:05:08.746Z,32.30
2019-01-04T13:07:37.294Z,29.37
2019-01-04T13:10:06.440Z,31.77
2019-01-04T13:12:35.145Z,32.60
2019-01-04T13:15:04.560Z,29.77
2019-01-04T13:17:33.304Z,33.90
2019-01-04T13:20:02.188Z,34.53
2019-01-04T13:22:30.951Z,41.13
2019-01-04T13:24:59.385Z,34.80
2019-01-04T13:27:28.133Z,36.63
2019-01-04T13:29:56.610Z,41.23
2019-01-04T13:32:25.030Z,39.57
2019-01-04T13:34:53.489Z,34.40
2019-01-04T13:37:22.264Z,38.37
2019-01-04T13:39:50.971Z,36.37
2019-01-04T13:42:19.704Z,49.10
2019-01-04T13:44:48.469Z,37.43
2019-01-04T13:47:17.260Z,39.30
2019-01-04T13:49:45.975Z,48.30
2019-01-04T13:52:14.661Z,44.63
2019-01-04T13:54:43.180Z,43.57
2019-01-04T13:57:11.882Z,39.20
2019-01-04T13:59:40.686Z,41.10
2019-01-04T14:02:09.119Z,38.90
2019-01-04T14:04:37.816Z,46.37
2019-01-04T14:07:06.660Z,45.17
2019-01-04T14:09:35.350Z,42.73
2019-01-04T14:12:04.073Z,51.20
2019-01-04T14:14:32.855Z,49.70
2019-01-04T14:17:01.661Z,45.60
2019-01-04T14:19:30.407Z,43.50
2019-01-04T14:21:59.211Z,45.27
2019-01-04T14:24:28.115Z,51.30
2019-01-04T14:26:56.774Z,43.40
2019-01-04T14:29:26.397Z,48.73
2019-01-04T14:31:54.862Z,47.43
2019-01-04T14:34:23.569Z,47.10
2019-01-04T14:36:52.266Z,42.37
2019-01-04T14:39:21.031Z,47.23
2019-01-04T14:41:49.765Z,50.43
2019-01-04T14:44:18.192Z,40.03
2019-01-04T14:46:46.621Z,46.80
2019-01-04T14:49:16.392Z,45.97
2019-01-04T14:51:45.152Z,45.10
2019-01-04T14:54:13.875Z,43.33
2019-01-04T14:56:42.548Z,52.33
2019-01-04T14:59:11.266Z,38.77
2019-01-04T15:01:39.965Z,48.23
2019-01-04T15:04:08.446Z,45.93
2019-01-04T15:06:37.095Z,44.47
2019-01-04T15:09:07.463Z,48.83
2019-01-04T15:11:36.136Z,48.33
2019-01-04T15:14:04.873Z,43.90
2019-01-04T15:16:33.637Z,46.60
2019-01-04T15:19:02.063Z,46.43
2019-01-04T15:21:30.767Z,42.70
2019-01-04T15:23:59.500Z,45.70
2019-01-04T15:26:28.281Z,47.50
2019-01-04T15:28:56.946Z,47.07
2019-01-04T15:31:25.631Z,49.07
2019-01-04T15:33:54.351Z,51.83
2019-01-04T15:36:23.061Z,43.87
2019-01-04T15:38:51.770Z,49.50
2019-01-04T15:41:20.186Z,48.27
2019-01-04T15:43:48.891Z,51.53
2019-01-04T15:46:17.579Z,49.13
2019-01-04T15:48:46.314Z,52.20
2019-01-04T15:51:15.075Z,58.93
2019-01-04T15:53:43.866Z,52.80
2019-01-04T15:56:12.667Z,50.30
2019-01-04T15:58:41.467Z,51.90
2019-01-04T16:01:10.154Z,53.40
2019-01-04T16:03:38.589Z,55.20
2019-01-04T16:06:07.283Z,59.77
2019-01-04T16:08:36.066Z,61.27
2019-01-04T16:11:04.851Z,58.73
2019-01-04T16:13:33.539Z,57.63
2019-01-04T16:16:02.863Z,64.43
2019-01-04T16:18:31.352Z,68.57
2019-01-04T16:21:00.071Z,65.73
2019-01-04T16:23:28.510Z,66.13
2019-01-04T16:25:57.006Z,69.30
2019-01-04T16:28:25.723Z,67.33
2019-01-04T16:30:54.408Z,79.60
2019-01-04T16:33:23.647Z,76.10
2019-01-04T16:35:52.059Z,76.40
2019-01-04T16:38:20.758Z,77.93
2019-01-04T16:40:49.275Z,78.20
2019-01-04T16:43:17.992Z,79.33
2019-01-04T16:45:46.964Z,85.33
2019-01-04T16:48:15.746Z,78.90
2019-01-04T16:50:47.573Z,85.77
2019-01-04T16:53:16.249Z,75.13
2019-01-04T16:55:46.438Z,77.80
2019-01-04T16:58:15.245Z,93.63
2019-01-04T17:00:44.351Z,85.40
2019-01-04T17:03:12.775Z,80.50
2019-01-04T17:05:42.421Z,78.27
2019-01-04T17:08:10.887Z,87.40
2019-01-04T17:10:39.360Z,88.03
2019-01-04T17:13:08.033Z,94.27
2019-01-04T17:15:36.733Z,87.20
2019-01-04T17:18:05.483Z,87.70
2019-01-04T17:20:34.194Z,84.40
2019-01-04T17:23:02.894Z,91.47
2019-01-04T17:25:32.724Z,97.07
2019-01-04T17:28:01.226Z,93.70
2019-01-04T17:30:29.909Z,108.43
2019-01-04T17:33:01.525Z,87.70
2019-01-04T17:35:30.000Z,91.43
2019-01-04T17:37:58.415Z,90.17
2019-01-04T17:40:27.082Z,91.63
2019-01-04T17:42:55.798Z,87.20
2019-01-04T17:45:24.479Z,89.63
2019-01-04T17:47:53.245Z,82.60
2019-01-04T17:50:21.923Z,99.30
2019-01-04T17:52:50.606Z,94.33
2019-01-04T17:55:19.397Z,88.93
2019-01-04T17:57:48.202Z,90.77
2019-01-04T18:00:16.693Z,88.57
2019-01-04T18:02:45.435Z,98.20
2019-01-04T18:05:14.251Z,98.27
2019-01-04T18:07:42.943Z,87.33
2019-01-04T18:10:11.688Z,91.03
2019-01-04T18:12:40.424Z,91.40
2019-01-04T18:15:09.334Z,95.33
2019-01-04T18:17:38.039Z,98.50
2019-01-04T18:20:11.006Z,94.67
2019-01-04T18:22:38.740Z,98.37
2019-01-04T18:25:07.319Z,101.57
2019-01-04T18:27:36.031Z,102.10
2019-01-04T18:30:07.234Z,103.63
2019-01-04T18:32:35.707Z,97.83
2019-01-04T18:35:04.316Z,89.57
2019-01-04T18:37:33.016Z,93.57
2019-01-04T18:40:01.470Z,96.17
2019-01-04T18:42:29.927Z,90.27
2019-01-04T18:44:58.705Z,97.57
2019-01-04T18:47:27.367Z,99.83
2019-01-04T18:49:56.073Z,96.43
2019-01-04T18:52:24.826Z,91.37
2019-01-04T18:54:53.674Z,99.73
2019-01-04T18:57:22.538Z,97.90
2019-01-04T18:59:53.657Z,98.10
2019-01-04T19:02:22.376Z,95.73
2019-01-04T19:04:50.865Z,95.20
2019-01-04T19:07:19.551Z,96.70
2019-01-04T19:09:48.024Z,83.50
2019-01-04T19:12:16.460Z,97.30
2019-01-04T19:14:45.150Z,91.83
2019-01-04T19:17:13.672Z,93.90
2019-01-04T19:19:42.381Z,113.37
2019-01-04T19:22:11.153Z,86.17
2019-01-04T19:24:39.864Z,93.77
2019-01-04T19:27:08.634Z,93.60
2019-01-04T19:29:37.144Z,113.00
2019-01-04T19:32:05.587Z,93.97
2019-01-04T19:34:34.135Z,94.37
2019-01-04T19:37:04.329Z,90.93
2019-01-04T19:39:33.031Z,85.03
2019-01-04T19:42:01.719Z,117.23
2019-01-04T19:44:30.406Z,96.30
2019-01-04T19:46:59.136Z,85.80
2019-01-04T19:49:27.898Z,97.00
2019-01-04T19:51:57.976Z,94.97
2019-01-04T19:54:26.690Z,81.07
2019-01-04T19:56:55.466Z,97.40
2019-01-04T19:59:24.159Z,88.27
2019-01-04T20:01:52.584Z,85.47
2019-01-04T20:04:21.400Z,90.87
2019-01-04T20:07:20.152Z,94.47
2019-01-04T20:10:26.707Z,87.63
2019-01-04T20:13:12.374Z,96.73
2019-01-04T20:16:15.839Z,99.03
2019-01-04T20:18:48.721Z,87.23
2019-01-04T20:21:27.775Z,91.97
2019-01-04T20:24:01.139Z,94.50
2019-01-04T20:26:47.364Z,179.50
2019-01-04T20:29:20.677Z,91.60
2019-01-04T20:32:00.101Z,83.70
2019-01-04T20:34:45.403Z,76.73
2019-01-04T20:37:30.756Z,81.13
2019-01-04T20:40:06.883Z,75.17
2019-01-04T20:42:53.716Z,70.43
2019-01-04T20:45:24.045Z,71.50
2019-01-04T20:47:54.119Z,75.67
2019-01-04T20:50:30.387Z,74.10
2019-01-04T20:53:04.002Z,72.27
2019-01-04T20:55:34.086Z,61.37
2019-01-04T20:58:16.046Z,75.67
2019-01-04T21:00:52.070Z,71.97
2019-01-04T21:03:39.988Z,69.10
2019-01-04T21:06:18.879Z,80.17
2019-01-04T21:08:51.937Z,86.07
2019-01-04T21:11:27.520Z,89.43
2019-01-04T21:14:14.300Z,72.30
2019-01-04T21:16:59.661Z,81.97
2019-01-04T21:19:39.130Z,76.43
2019-01-04T21:22:18.766Z,68.87
2019-01-04T21:25:00.867Z,67.50
2019-01-04T21:27:32.394Z,65.63
2019-01-04T21:30:08.430Z,69.93
2019-01-04T21:32:41.223Z,72.10
2019-01-04T21:35:11.388Z,65.10
2019-01-04T21:37:44.758Z,73.80
2019-01-04T21:40:23.831Z,63.73
2019-01-04T21:42:59.948Z,62.50
2019-01-04T21:45:45.309Z,65.10
2019-01-04T21:48:15.673Z,74.37
2019-01-04T21:50:46.046Z,58.27
2019-01-04T21:53:19.496Z,90.07
2019-01-04T21:56:01.744Z,59.13
2019-01-04T21:58:49.202Z,61.10
2019-01-04T22:01:28.119Z,71.30
2019-01-04T22:04:13.645Z,72.00
2019-01-04T22:06:44.051Z,61.63
2019-01-04T22:09:15.323Z,79.40
2019-01-04T22:12:01.035Z,70.00
2019-01-04T22:14:40.047Z,71.03
2019-01-04T22:17:10.401Z,71.53
2019-01-04T22:19:43.457Z,68.23
2019-01-04T22:22:13.541Z,73.80
2019-01-04T22:24:59.971Z,73.03
2019-01-04T22:27:39.282Z,81.63
2019-01-04T22:30:15.939Z,67.57
2019-01-04T22:32:58.671Z,74.47
2019-01-04T22:35:40.876Z,75.37
2019-01-04T22:38:23.470Z,92.50
2019-01-04T22:40:56.472Z,86.03
2019-01-04T22:43:32.536Z,76.17
2019-01-04T22:46:15.155Z,92.87
2019-01-04T22:49:03.613Z,82.00
2019-01-04T22:51:50.093Z,84.03
2019-01-04T22:54:29.531Z,72.00
2019-01-04T22:57:15.956Z,71.27
2019-01-04T23:00:01.049Z,68.73
2019-01-04T23:02:47.643Z,76.17
2019-01-04T23:05:17.787Z,74.97
2019-01-04T23:08:03.776Z,67.87
2019-01-04T23:10:42.685Z,71.00
2019-01-04T23:13:28.867Z,76.33
2019-01-04T23:15:59.249Z,79.63
2019-01-04T23:18:29.356Z,90.97
2019-01-04T23:21:14.525Z,108.20
2019-01-04T23:23:44.866Z,115.20
2019-01-04T23:26:19.574Z,110.47
2019-01-04T23:28:49.766Z,85.20
2019-01-04T23:31:36.416Z,73.80
2019-01-04T23:34:12.538Z,80.13
2019-01-04T23:36:55.030Z,86.80
2019-01-04T23:39:25.479Z,84.40
2019-01-04T23:41:55.901Z,83.30
2019-01-04T23:44:37.927Z,81.80
2019-01-04T23:47:24.727Z,83.27
2019-01-04T23:50:04.110Z,87.93
2019-01-04T23:52:46.330Z,84.17
2019-01-04T23:55:19.255Z,89.43
2019-01-04T23:57:52.173Z,81.53
